sensor_id;sensor_type;location;lat;lon;timestamp;pressure;altitude;pressure_sealevel;temperature;humidity
44751;BME280;30477;48.224;11.470;2022-11-15T00:01:39;96011.53;;;4.47;78.96
44751;BME280;30477;48.224;11.470;2022-11-15T00:04:05;96014.09;;;4.47;78.83
44751;BME280;30477;48.224;11.470;2022-11-15T00:06:31;96007.31;;;4.46;78.84
44751;BME280;30477;48.224;11.470;2022-11-15T00:09:00;96014.81;;;4.50;78.88
44751;BME280;30477;48.224;11.470;2022-11-15T00:11:26;96007.31;;;4.46;78.71
44751;BME280;30477;48.224;11.470;2022-11-15T00:13:55;96013.38;;;4.45;78.85
44751;BME280;30477;48.224;11.470;2022-11-15T00:16:21;96016.34;;;4.39;78.70
44751;BME280;30477;48.224;11.470;2022-11-15T00:18:46;96001.97;;;4.24;78.91
44751;BME280;30477;48.224;11.470;2022-11-15T00:21:13;96004.13;;;4.30;79.41
44751;BME280;30477;48.224;11.470;2022-11-15T00:23:39;96000.25;;;4.50;78.94
44751;BME280;30477;48.224;11.470;2022-11-15T00:26:05;95997.47;;;4.40;78.46
44751;BME280;30477;48.224;11.470;2022-11-15T00:28:30;95997.16;;;4.32;78.35
44751;BME280;30477;48.224;11.470;2022-11-15T00:31:07;95995.94;;;4.25;78.37
44751;BME280;30477;48.224;11.470;2022-11-15T00:33:33;95993.47;;;4.23;78.44
44751;BME280;30477;48.224;11.470;2022-11-15T00:36:01;95992.13;;;4.18;78.46
44751;BME280;30477;48.224;11.470;2022-11-15T00:38:30;95992.56;;;4.12;78.39
44751;BME280;30477;48.224;11.470;2022-11-15T00:40:56;95987.94;;;4.17;78.73
44751;BME280;30477;48.224;11.470;2022-11-15T00:43:21;95987.94;;;4.42;78.98
44751;BME280;30477;48.224;11.470;2022-11-15T00:45:47;95979.63;;;4.52;78.80
44751;BME280;30477;48.224;11.470;2022-11-15T00:48:12;95985.25;;;4.57;78.57
44751;BME280;30477;48.224;11.470;2022-11-15T00:50:37;95979.63;;;4.52;78.49
44751;BME280;30477;48.224;11.470;2022-11-15T00:53:02;95974.50;;;4.52;78.50
44751;BME280;30477;48.224;11.470;2022-11-15T00:55:28;95970.09;;;4.54;78.68
44751;BME280;30477;48.224;11.470;2022-11-15T00:57:53;95968.03;;;4.59;78.40
44751;BME280;30477;48.224;11.470;2022-11-15T01:00:18;95969.88;;;4.57;78.49
44751;BME280;30477;48.224;11.470;2022-11-15T01:02:44;95966.41;;;4.45;78.47
44751;BME280;30477;48.224;11.470;2022-11-15T01:05:09;95965.81;;;4.41;78.61
44751;BME280;30477;48.224;11.470;2022-11-15T01:07:35;95968.06;;;4.33;78.41
44751;BME280;30477;48.224;11.470;2022-11-15T01:10:00;95962.75;;;4.23;78.35
44751;BME280;30477;48.224;11.470;2022-11-15T01:12:25;95957.22;;;4.17;78.52
44751;BME280;30477;48.224;11.470;2022-11-15T01:14:51;95953.72;;;4.18;78.39
44751;BME280;30477;48.224;11.470;2022-11-15T01:17:16;95956.59;;;4.13;78.23
44751;BME280;30477;48.224;11.470;2022-11-15T01:19:41;95955.16;;;4.09;78.47
44751;BME280;30477;48.224;11.470;2022-11-15T01:22:06;95954.25;;;4.10;78.45
44751;BME280;30477;48.224;11.470;2022-11-15T01:24:32;95958.75;;;4.06;78.52
44751;BME280;30477;48.224;11.470;2022-11-15T01:26:57;95952.50;;;4.11;78.56
44751;BME280;30477;48.224;11.470;2022-11-15T01:29:22;95946.97;;;4.17;78.39
44751;BME280;30477;48.224;11.470;2022-11-15T01:31:48;95937.84;;;4.25;78.48
44751;BME280;30477;48.224;11.470;2022-11-15T01:34:13;95937.31;;;4.33;78.39
44751;BME280;30477;48.224;11.470;2022-11-15T01:36:40;95941.94;;;4.28;77.86
44751;BME280;30477;48.224;11.470;2022-11-15T01:39:05;95945.03;;;4.07;77.63
44751;BME280;30477;48.224;11.470;2022-11-15T01:41:32;95940.91;;;3.92;77.69
44751;BME280;30477;48.224;11.470;2022-11-15T01:47:04;95943.94;;;3.46;78.03
44751;BME280;30477;48.224;11.470;2022-11-15T01:49:33;95942.50;;;3.42;78.20
44751;BME280;30477;48.224;11.470;2022-11-15T01:52:02;95937.28;;;3.43;78.62
44751;BME280;30477;48.224;11.470;2022-11-15T01:54:29;95931.88;;;3.48;78.77
44751;BME280;30477;48.224;11.470;2022-11-15T01:57:00;95928.91;;;3.54;78.75
44751;BME280;30477;48.224;11.470;2022-11-15T01:59:26;95925.44;;;3.55;78.79
44751;BME280;30477;48.224;11.470;2022-11-15T02:01:52;95924.50;;;3.56;78.82
44751;BME280;30477;48.224;11.470;2022-11-15T02:04:22;95925.75;;;3.63;78.94
44751;BME280;30477;48.224;11.470;2022-11-15T02:06:49;95926.88;;;3.59;78.62
44751;BME280;30477;48.224;11.470;2022-11-15T02:09:15;95914.28;;;3.56;78.59
44751;BME280;30477;48.224;11.470;2022-11-15T02:11:41;95927.69;;;3.47;78.10
44751;BME280;30477;48.224;11.470;2022-11-15T02:14:09;95922.13;;;3.28;78.55
44751;BME280;30477;48.224;11.470;2022-11-15T02:17:10;95921.59;;;3.35;78.78
44751;BME280;30477;48.224;11.470;2022-11-15T02:19:49;95913.03;;;3.36;78.84
44751;BME280;30477;48.224;11.470;2022-11-15T02:22:51;95904.97;;;3.42;78.98
44751;BME280;30477;48.224;11.470;2022-11-15T02:33:35;95897.81;;;3.73;78.90
44751;BME280;30477;48.224;11.470;2022-11-15T02:36:15;95892.50;;;3.63;78.77
44751;BME280;30477;48.224;11.470;2022-11-15T02:38:57;95884.19;;;3.60;78.79
44751;BME280;30477;48.224;11.470;2022-11-15T02:41:45;95886.13;;;3.69;78.75
44751;BME280;30477;48.224;11.470;2022-11-15T02:44:18;95885.94;;;3.72;78.74
44751;BME280;30477;48.224;11.470;2022-11-15T02:49:35;95878.97;;;3.49;78.76
44751;BME280;30477;48.224;11.470;2022-11-15T02:52:03;95879.78;;;3.36;78.81
44751;BME280;30477;48.224;11.470;2022-11-15T02:54:30;95877.00;;;3.39;78.96
44751;BME280;30477;48.224;11.470;2022-11-15T02:57:16;95877.53;;;3.44;79.33
44751;BME280;30477;48.224;11.470;2022-11-15T03:02:29;95879.56;;;3.52;79.47
44751;BME280;30477;48.224;11.470;2022-11-15T03:05:17;95877.63;;;3.43;79.33
44751;BME280;30477;48.224;11.470;2022-11-15T03:07:56;95872.00;;;3.51;79.78
44751;BME280;30477;48.224;11.470;2022-11-15T03:13:07;95868.31;;;3.42;79.36
44751;BME280;30477;48.224;11.470;2022-11-15T03:15:45;95863.00;;;3.32;79.47
44751;BME280;30477;48.224;11.470;2022-11-15T03:18:30;95871.47;;;3.33;79.64
44751;BME280;30477;48.224;11.470;2022-11-15T03:21:00;95859.00;;;3.28;79.74
44751;BME280;30477;48.224;11.470;2022-11-15T03:23:28;95869.03;;;3.44;79.99
44751;BME280;30477;48.224;11.470;2022-11-15T03:25:56;95864.13;;;3.41;79.38
44751;BME280;30477;48.224;11.470;2022-11-15T03:28:27;95860.72;;;3.28;79.46
44751;BME280;30477;48.224;11.470;2022-11-15T03:30:53;95856.81;;;3.22;79.39
44751;BME280;30477;48.224;11.470;2022-11-15T03:33:21;95854.06;;;3.25;79.64
44751;BME280;30477;48.224;11.470;2022-11-15T03:35:47;95845.56;;;3.24;79.43
44751;BME280;30477;48.224;11.470;2022-11-15T03:40:57;95843.72;;;3.14;79.39
44751;BME280;30477;48.224;11.470;2022-11-15T03:44:15;95849.31;;;3.06;79.23
44751;BME280;30477;48.224;11.470;2022-11-15T03:46:47;95845.44;;;3.00;79.29
44751;BME280;30477;48.224;11.470;2022-11-15T03:49:21;95839.31;;;3.03;79.67
44751;BME280;30477;48.224;11.470;2022-11-15T03:51:48;95838.63;;;3.27;80.07
44751;BME280;30477;48.224;11.470;2022-11-15T03:54:13;95832.69;;;3.39;79.67
44751;BME280;30477;48.224;11.470;2022-11-15T03:56:39;95835.88;;;3.42;79.49
44751;BME280;30477;48.224;11.470;2022-11-15T03:59:04;95834.13;;;3.43;79.25
44751;BME280;30477;48.224;11.470;2022-11-15T04:01:29;95827.38;;;3.42;78.95
44751;BME280;30477;48.224;11.470;2022-11-15T04:03:55;95824.31;;;3.37;78.83
44751;BME280;30477;48.224;11.470;2022-11-15T04:06:20;95823.78;;;3.32;78.69
44751;BME280;30477;48.224;11.470;2022-11-15T04:08:45;95818.16;;;3.27;78.61
44751;BME280;30477;48.224;11.470;2022-11-15T04:11:11;95821.44;;;3.29;78.52
44751;BME280;30477;48.224;11.470;2022-11-15T04:13:36;95820.31;;;3.20;78.33
44751;BME280;30477;48.224;11.470;2022-11-15T04:16:01;95822.16;;;3.18;78.31
44751;BME280;30477;48.224;11.470;2022-11-15T04:18:27;95823.88;;;3.04;78.21
44751;BME280;30477;48.224;11.470;2022-11-15T04:20:52;95822.84;;;3.07;78.50
44751;BME280;30477;48.224;11.470;2022-11-15T04:23:36;95822.97;;;3.18;78.64
44751;BME280;30477;48.224;11.470;2022-11-15T04:26:30;95823.78;;;3.32;78.44
44751;BME280;30477;48.224;11.470;2022-11-15T04:28:55;95817.13;;;3.16;77.96
44751;BME280;30477;48.224;11.470;2022-11-15T04:31:39;95809.94;;;2.96;77.79
44751;BME280;30477;48.224;11.470;2022-11-15T04:34:05;95813.19;;;2.85;78.02
44751;BME280;30477;48.224;11.470;2022-11-15T04:36:30;95808.38;;;2.80;78.02
44751;BME280;30477;48.224;11.470;2022-11-15T04:39:14;95803.97;;;2.82;78.42
44751;BME280;30477;48.224;11.470;2022-11-15T04:41:39;95812.59;;;2.81;78.18
44751;BME280;30477;48.224;11.470;2022-11-15T04:44:04;95808.38;;;2.80;78.70
44751;BME280;30477;48.224;11.470;2022-11-15T04:46:30;95807.34;;;2.83;78.68
44751;BME280;30477;48.224;11.470;2022-11-15T04:48:55;95802.34;;;2.81;78.57
44751;BME280;30477;48.224;11.470;2022-11-15T04:51:21;95810.13;;;2.80;78.79
44751;BME280;30477;48.224;11.470;2022-11-15T04:53:46;95800.91;;;2.77;78.70
44751;BME280;30477;48.224;11.470;2022-11-15T04:56:11;95805.09;;;2.78;79.01
44751;BME280;30477;48.224;11.470;2022-11-15T04:58:37;95796.69;;;2.76;79.03
44751;BME280;30477;48.224;11.470;2022-11-15T05:01:11;95793.97;;;2.79;78.80
44751;BME280;30477;48.224;11.470;2022-11-15T05:03:37;95795.81;;;2.77;78.90
44751;BME280;30477;48.224;11.470;2022-11-15T05:06:21;95792.53;;;2.75;78.93
44751;BME280;30477;48.224;11.470;2022-11-15T05:08:47;95788.31;;;2.74;78.91
44751;BME280;30477;48.224;11.470;2022-11-15T05:11:12;95778.09;;;2.74;78.84
44751;BME280;30477;48.224;11.470;2022-11-15T05:13:38;95777.47;;;2.71;78.86
44751;BME280;30477;48.224;11.470;2022-11-15T05:16:03;95780.88;;;2.84;79.24
44751;BME280;30477;48.224;11.470;2022-11-15T05:18:28;95772.69;;;2.92;79.11
44751;BME280;30477;48.224;11.470;2022-11-15T05:20:54;95774.13;;;2.96;78.87
44751;BME280;30477;48.224;11.470;2022-11-15T05:23:19;95779.53;;;2.78;78.28
44751;BME280;30477;48.224;11.470;2022-11-15T05:25:44;95772.66;;;2.66;78.45
44751;BME280;30477;48.224;11.470;2022-11-15T05:28:10;95771.94;;;2.64;78.33
44751;BME280;30477;48.224;11.470;2022-11-15T05:30:35;95769.59;;;2.61;78.40
44751;BME280;30477;48.224;11.470;2022-11-15T05:33:01;95769.78;;;2.58;78.38
44751;BME280;30477;48.224;11.470;2022-11-15T05:35:33;95763.22;;;2.54;78.21
44751;BME280;30477;48.224;11.470;2022-11-15T05:37:59;95772.44;;;2.56;78.46
44751;BME280;30477;48.224;11.470;2022-11-15T05:40:25;95770.00;;;2.68;78.49
44751;BME280;30477;48.224;11.470;2022-11-15T05:42:51;95770.03;;;2.80;78.29
44751;BME280;30477;48.224;11.470;2022-11-15T05:45:17;95758.91;;;2.81;78.02
44751;BME280;30477;48.224;11.470;2022-11-15T05:47:43;95758.44;;;2.62;77.58
44751;BME280;30477;48.224;11.470;2022-11-15T05:50:12;95752.22;;;2.66;78.21
44751;BME280;30477;48.224;11.470;2022-11-15T05:52:38;95747.25;;;2.77;78.38
44751;BME280;30477;48.224;11.470;2022-11-15T05:55:04;95743.56;;;2.81;78.05
44751;BME280;30477;48.224;11.470;2022-11-15T05:57:31;95743.84;;;2.77;77.72
44751;BME280;30477;48.224;11.470;2022-11-15T05:59:56;95746.31;;;2.78;77.64
44751;BME280;30477;48.224;11.470;2022-11-15T06:02:21;95745.91;;;2.84;77.78
44751;BME280;30477;48.224;11.470;2022-11-15T06:04:47;95749.56;;;2.68;77.07
44751;BME280;30477;48.224;11.470;2022-11-15T06:07:12;95754.66;;;2.55;77.53
44751;BME280;30477;48.224;11.470;2022-11-15T06:09:37;95747.31;;;2.63;77.89
44751;BME280;30477;48.224;11.470;2022-11-15T06:12:03;95739.38;;;2.80;78.04
44751;BME280;30477;48.224;11.470;2022-11-15T06:14:28;95744.38;;;2.82;78.08
44751;BME280;30477;48.224;11.470;2022-11-15T06:16:54;95741.03;;;2.81;77.75
44751;BME280;30477;48.224;11.470;2022-11-15T06:19:20;95744.88;;;2.74;77.81
44751;BME280;30477;48.224;11.470;2022-11-15T06:21:45;95731.69;;;2.68;77.85
44751;BME280;30477;48.224;11.470;2022-11-15T06:24:10;95735.25;;;2.65;78.07
44751;BME280;30477;48.224;11.470;2022-11-15T06:26:36;95734.72;;;2.60;77.91
44751;BME280;30477;48.224;11.470;2022-11-15T06:29:03;95735.25;;;2.52;77.88
44751;BME280;30477;48.224;11.470;2022-11-15T06:31:29;95739.41;;;2.53;78.04
44751;BME280;30477;48.224;11.470;2022-11-15T06:33:54;95737.09;;;2.63;78.25
44751;BME280;30477;48.224;11.470;2022-11-15T06:36:20;95734.88;;;2.71;78.13
44751;BME280;30477;48.224;11.470;2022-11-15T06:38:46;95740.38;;;2.65;77.86
44751;BME280;30477;48.224;11.470;2022-11-15T06:41:12;95742.00;;;2.66;77.82
44751;BME280;30477;48.224;11.470;2022-11-15T06:43:37;95742.53;;;2.71;77.91
44751;BME280;30477;48.224;11.470;2022-11-15T06:46:04;95744.84;;;2.61;77.72
44751;BME280;30477;48.224;11.470;2022-11-15T06:48:31;95742.91;;;2.52;77.79
44751;BME280;30477;48.224;11.470;2022-11-15T06:50:58;95751.13;;;2.43;77.86
44751;BME280;30477;48.224;11.470;2022-11-15T06:53:24;95747.06;;;2.40;77.99
44751;BME280;30477;48.224;11.470;2022-11-15T06:55:50;95759.91;;;2.39;78.10
44751;BME280;30477;48.224;11.470;2022-11-15T06:58:16;95757.69;;;2.47;78.48
44751;BME280;30477;48.224;11.470;2022-11-15T07:00:41;95761.59;;;2.53;78.18
44751;BME280;30477;48.224;11.470;2022-11-15T07:03:07;95768.72;;;2.48;78.54
44751;BME280;30477;48.224;11.470;2022-11-15T07:05:33;95769.56;;;2.48;78.63
44751;BME280;30477;48.224;11.470;2022-11-15T07:07:58;95765.06;;;2.52;78.48
44751;BME280;30477;48.224;11.470;2022-11-15T07:10:24;95765.06;;;2.52;78.56
44751;BME280;30477;48.224;11.470;2022-11-15T07:12:51;95764.06;;;2.54;78.66
44751;BME280;30477;48.224;11.470;2022-11-15T07:15:18;95762.66;;;2.63;78.76
44751;BME280;30477;48.224;11.470;2022-11-15T07:17:44;95768.28;;;2.68;78.57
44751;BME280;30477;48.224;11.470;2022-11-15T07:20:10;95767.38;;;2.69;78.72
44751;BME280;30477;48.224;11.470;2022-11-15T07:22:35;95768.19;;;2.82;78.76
44751;BME280;30477;48.224;11.470;2022-11-15T07:25:01;95776.59;;;2.84;79.04
44751;BME280;30477;48.224;11.470;2022-11-15T07:27:26;95777.78;;;2.79;78.52
44751;BME280;30477;48.224;11.470;2022-11-15T07:29:51;95778.50;;;2.68;78.56
44751;BME280;30477;48.224;11.470;2022-11-15T07:32:17;95774.09;;;2.70;79.17
44751;BME280;30477;48.224;11.470;2022-11-15T07:34:42;95770.03;;;2.80;79.22
44751;BME280;30477;48.224;11.470;2022-11-15T07:37:08;95767.88;;;2.87;79.15
44751;BME280;30477;48.224;11.470;2022-11-15T07:39:33;95766.69;;;2.93;79.23
44751;BME280;30477;48.224;11.470;2022-11-15T07:41:59;95762.28;;;2.95;79.38
44751;BME280;30477;48.224;11.470;2022-11-15T07:44:43;95753.59;;;2.97;79.68
44751;BME280;30477;48.224;11.470;2022-11-15T07:47:09;95753.28;;;3.02;79.40
44751;BME280;30477;48.224;11.470;2022-11-15T07:49:34;95746.16;;;3.07;79.58
44751;BME280;30477;48.224;11.470;2022-11-15T07:51:59;95742.88;;;3.31;80.08
44751;BME280;30477;48.224;11.470;2022-11-15T07:54:25;95732.19;;;3.50;79.81
44751;BME280;30477;48.224;11.470;2022-11-15T07:56:50;95732.41;;;3.59;79.51
44751;BME280;30477;48.224;11.470;2022-11-15T07:59:15;95732.88;;;3.64;79.52
44751;BME280;30477;48.224;11.470;2022-11-15T08:01:41;95726.44;;;3.72;79.33
44751;BME280;30477;48.224;11.470;2022-11-15T08:04:06;95731.94;;;3.78;79.36
44751;BME280;30477;48.224;11.470;2022-11-15T08:06:31;95727.13;;;3.86;79.21
44751;BME280;30477;48.224;11.470;2022-11-15T08:08:57;95721.44;;;3.94;79.50
44751;BME280;30477;48.224;11.470;2022-11-15T08:11:22;95714.03;;;4.02;79.33
44751;BME280;30477;48.224;11.470;2022-11-15T08:13:47;95714.31;;;4.11;79.14
44751;BME280;30477;48.224;11.470;2022-11-15T08:16:12;95709.00;;;4.14;79.19
44751;BME280;30477;48.224;11.470;2022-11-15T08:18:38;95711.31;;;4.17;79.14
44751;BME280;30477;48.224;11.470;2022-11-15T08:21:03;95706.22;;;4.28;79.18
44751;BME280;30477;48.224;11.470;2022-11-15T08:23:29;95704.44;;;4.41;78.93
44751;BME280;30477;48.224;11.470;2022-11-15T08:26:02;95693.94;;;4.44;78.79
44751;BME280;30477;48.224;11.470;2022-11-15T08:28:29;95698.88;;;4.47;78.61
44751;BME280;30477;48.224;11.470;2022-11-15T08:30:54;95698.63;;;4.51;78.44
44751;BME280;30477;48.224;11.470;2022-11-15T08:33:19;95694.13;;;4.54;78.33
44751;BME280;30477;48.224;11.470;2022-11-15T08:35:45;95690.25;;;4.60;78.08
44751;BME280;30477;48.224;11.470;2022-11-15T08:38:10;95695.66;;;4.68;77.75
44751;BME280;30477;48.224;11.470;2022-11-15T08:40:36;95696.94;;;4.62;77.24
44751;BME280;30477;48.224;11.470;2022-11-15T08:43:02;95703.56;;;4.54;77.20
44751;BME280;30477;48.224;11.470;2022-11-15T08:45:29;95703.56;;;4.54;77.44
44751;BME280;30477;48.224;11.470;2022-11-15T08:47:54;95695.88;;;4.54;77.45
44751;BME280;30477;48.224;11.470;2022-11-15T08:50:19;95687.94;;;4.57;77.48
44751;BME280;30477;48.224;11.470;2022-11-15T08:52:45;95695.19;;;4.63;77.47
44751;BME280;30477;48.224;11.470;2022-11-15T08:55:10;95688.69;;;4.81;77.50
44751;BME280;30477;48.224;11.470;2022-11-15T08:57:36;95689.16;;;4.86;77.49
44751;BME280;30477;48.224;11.470;2022-11-15T09:00:02;95689.53;;;4.93;77.35
44751;BME280;30477;48.224;11.470;2022-11-15T09:02:28;95689.91;;;5.00;77.64
44751;BME280;30477;48.224;11.470;2022-11-15T09:04:53;95688.25;;;4.99;77.42
44751;BME280;30477;48.224;11.470;2022-11-15T09:07:18;95680.22;;;5.03;77.57
44751;BME280;30477;48.224;11.470;2022-11-15T09:09:44;95667.63;;;5.12;77.45
44751;BME280;30477;48.224;11.470;2022-11-15T09:12:09;95664.72;;;5.16;77.57
44751;BME280;30477;48.224;11.470;2022-11-15T09:14:34;95670.06;;;5.24;77.68
44751;BME280;30477;48.224;11.470;2022-11-15T09:17:00;95661.69;;;5.34;77.71
44751;BME280;30477;48.224;11.470;2022-11-15T09:19:26;95663.09;;;5.38;77.74
44751;BME280;30477;48.224;11.470;2022-11-15T09:21:51;95658.41;;;5.43;77.60
44751;BME280;30477;48.224;11.470;2022-11-15T09:24:17;95657.25;;;5.47;77.85
44751;BME280;30477;48.224;11.470;2022-11-15T09:26:43;95652.53;;;5.52;77.59
44751;BME280;30477;48.224;11.470;2022-11-15T09:29:08;95647.63;;;5.60;77.62
44751;BME280;30477;48.224;11.470;2022-11-15T09:31:34;95645.28;;;5.68;77.61
44751;BME280;30477;48.224;11.470;2022-11-15T09:33:59;95642.03;;;5.78;77.41
44751;BME280;30477;48.224;11.470;2022-11-15T09:36:25;95638.03;;;5.85;77.17
44751;BME280;30477;48.224;11.470;2022-11-15T09:38:50;95627.72;;;5.96;76.89
44751;BME280;30477;48.224;11.470;2022-11-15T09:41:25;95626.44;;;6.02;76.62
44751;BME280;30477;48.224;11.470;2022-11-15T09:47:31;95626.03;;;6.18;75.70
44751;BME280;30477;48.224;11.470;2022-11-15T09:50:09;95623.66;;;6.26;75.61
44751;BME280;30477;48.224;11.470;2022-11-15T09:52:36;95614.50;;;6.33;75.44
44751;BME280;30477;48.224;11.470;2022-11-15T09:55:02;95614.00;;;6.39;75.35
44751;BME280;30477;48.224;11.470;2022-11-15T09:57:36;95611.75;;;6.46;75.52
44751;BME280;30477;48.224;11.470;2022-11-15T10:00:23;95606.34;;;6.49;75.18
44751;BME280;30477;48.224;11.470;2022-11-15T10:03:15;95600.56;;;6.57;75.60
44751;BME280;30477;48.224;11.470;2022-11-15T10:05:44;95590.34;;;6.66;75.51
44751;BME280;30477;48.224;11.470;2022-11-15T10:10:43;95589.06;;;6.82;75.59
44751;BME280;30477;48.224;11.470;2022-11-15T10:13:31;95578.78;;;6.82;75.44
44751;BME280;30477;48.224;11.470;2022-11-15T10:16:28;95576.94;;;6.94;75.30
44751;BME280;30477;48.224;11.470;2022-11-15T10:24:45;95564.09;;;7.83;70.84
44751;BME280;30477;48.224;11.470;2022-11-15T10:27:13;95563.56;;;7.89;70.01
44751;BME280;30477;48.224;11.470;2022-11-15T10:29:46;95561.41;;;7.94;69.41
44751;BME280;30477;48.224;11.470;2022-11-15T10:32:13;95553.53;;;8.05;68.83
44751;BME280;30477;48.224;11.470;2022-11-15T10:34:39;95551.06;;;8.13;68.50
44751;BME280;30477;48.224;11.470;2022-11-15T10:37:04;95546.97;;;8.21;68.41
44751;BME280;30477;48.224;11.470;2022-11-15T10:39:30;95548.19;;;8.36;67.96
44751;BME280;30477;48.224;11.470;2022-11-15T10:41:56;95544.94;;;8.44;68.24
44751;BME280;30477;48.224;11.470;2022-11-15T10:44:31;95537.06;;;8.55;67.38
44751;BME280;30477;48.224;11.470;2022-11-15T10:49:24;95536.53;;;8.89;65.57
44751;BME280;30477;48.224;11.470;2022-11-15T10:54:50;95523.63;;;9.17;64.12
44751;BME280;30477;48.224;11.470;2022-11-15T10:57:23;95505.59;;;9.34;63.24
44751;BME280;30477;48.224;11.470;2022-11-15T10:59:53;95504.97;;;9.41;62.42
44751;BME280;30477;48.224;11.470;2022-11-15T11:04:54;95498.50;;;9.54;61.68
44751;BME280;30477;48.224;11.470;2022-11-15T11:07:22;95497.00;;;9.70;61.82
44751;BME280;30477;48.224;11.470;2022-11-15T11:12:29;95494.34;;;9.80;61.53
44751;BME280;30477;48.224;11.470;2022-11-15T11:14:57;95482.81;;;9.92;61.45
44751;BME280;30477;48.224;11.470;2022-11-15T11:23:03;95467.16;;;10.20;61.99
44751;BME280;30477;48.224;11.470;2022-11-15T11:31:10;95462.41;;;10.33;61.56
44751;BME280;30477;48.224;11.470;2022-11-15T11:39:41;95443.13;;;10.53;60.81
44751;BME280;30477;48.224;11.470;2022-11-15T11:45:05;95439.81;;;10.69;59.92
44751;BME280;30477;48.224;11.470;2022-11-15T11:47:40;95429.94;;;10.73;60.51
44751;BME280;30477;48.224;11.470;2022-11-15T11:50:19;95432.88;;;10.78;60.86
44751;BME280;30477;48.224;11.470;2022-11-15T11:55:58;95416.41;;;10.87;60.58
44751;BME280;30477;48.224;11.470;2022-11-15T11:58:42;95412.22;;;10.94;61.16
44751;BME280;30477;48.224;11.470;2022-11-15T12:03:46;95412.69;;;10.98;60.50
44751;BME280;30477;48.224;11.470;2022-11-15T12:09:04;95407.09;;;11.11;60.29
44751;BME280;30477;48.224;11.470;2022-11-15T12:14:25;95406.41;;;11.17;60.45
44751;BME280;30477;48.224;11.470;2022-11-15T12:16:52;95404.81;;;11.16;60.24
44751;BME280;30477;48.224;11.470;2022-11-15T12:19:17;95407.41;;;11.16;60.46
44751;BME280;30477;48.224;11.470;2022-11-15T12:21:47;95400.44;;;11.16;60.37
44751;BME280;30477;48.224;11.470;2022-11-15T12:24:24;95397.06;;;11.24;59.52
44751;BME280;30477;48.224;11.470;2022-11-15T12:27:46;95401.25;;;11.25;59.47
44751;BME280;30477;48.224;11.470;2022-11-15T12:29:51;95392.19;;;11.21;59.61
44751;BME280;30477;48.224;11.470;2022-11-15T12:32:28;95397.06;;;11.24;59.23
44751;BME280;30477;48.224;11.470;2022-11-15T12:34:54;95396.72;;;11.27;59.24
44751;BME280;30477;48.224;11.470;2022-11-15T12:44:56;95390.75;;;11.43;58.48
44751;BME280;30477;48.224;11.470;2022-11-15T12:47:25;95384.44;;;11.46;58.67
44751;BME280;30477;48.224;11.470;2022-11-15T12:49:51;95378.94;;;11.49;59.01
44751;BME280;30477;48.224;11.470;2022-11-15T12:52:17;95377.94;;;11.58;58.53
44751;BME280;30477;48.224;11.470;2022-11-15T13:02:19;95374.22;;;11.69;57.46
44751;BME280;30477;48.224;11.470;2022-11-15T13:04:46;95371.47;;;11.70;57.19
44751;BME280;30477;48.224;11.470;2022-11-15T13:12:53;95366.78;;;11.74;57.69
44751;BME280;30477;48.224;11.470;2022-11-15T13:15:37;95363.03;;;11.76;57.87
44751;BME280;30477;48.224;11.470;2022-11-15T13:18:28;95362.38;;;11.74;58.25
44751;BME280;30477;48.224;11.470;2022-11-15T13:20:54;95361.91;;;11.71;58.83
44751;BME280;30477;48.224;11.470;2022-11-15T13:23:21;95364.66;;;11.69;58.75
44751;BME280;30477;48.224;11.470;2022-11-15T13:25:54;95361.09;;;11.70;58.83
44751;BME280;30477;48.224;11.470;2022-11-15T13:33:43;95363.69;;;11.70;58.33
44751;BME280;30477;48.224;11.470;2022-11-15T13:36:20;95360.28;;;11.70;58.97
44751;BME280;30477;48.224;11.470;2022-11-15T13:38:55;95368.22;;;11.68;59.26
44751;BME280;30477;48.224;11.470;2022-11-15T13:41:23;95364.00;;;11.67;59.72
44751;BME280;30477;48.224;11.470;2022-11-15T13:43:50;95359.00;;;11.66;60.03
44751;BME280;30477;48.224;11.470;2022-11-15T13:48:44;95362.91;;;11.62;59.90
44751;BME280;30477;48.224;11.470;2022-11-15T13:51:17;95360.94;;;11.55;59.94
44751;BME280;30477;48.224;11.470;2022-11-15T13:53:54;95351.09;;;11.51;60.50
44751;BME280;30477;48.224;11.470;2022-11-15T13:56:27;95345.25;;;11.49;61.34
44751;BME280;30477;48.224;11.470;2022-11-15T13:59:00;95349.78;;;11.47;61.85
44751;BME280;30477;48.224;11.470;2022-11-15T14:01:28;95352.03;;;11.42;62.53
44751;BME280;30477;48.224;11.470;2022-11-15T14:04:01;95348.16;;;11.37;63.19
44751;BME280;30477;48.224;11.470;2022-11-15T14:06:31;95354.63;;;11.33;63.52
44751;BME280;30477;48.224;11.470;2022-11-15T14:09:01;95361.75;;;11.31;63.47
44751;BME280;30477;48.224;11.470;2022-11-15T14:11:30;95358.22;;;11.32;64.07
44751;BME280;30477;48.224;11.470;2022-11-15T14:19:08;95358.50;;;11.29;63.86
44751;BME280;30477;48.224;11.470;2022-11-15T14:21:37;95350.09;;;11.27;63.97
44751;BME280;30477;48.224;11.470;2022-11-15T14:24:30;95359.16;;;11.23;64.13
44751;BME280;30477;48.224;11.470;2022-11-15T14:26:56;95363.88;;;11.20;64.16
44751;BME280;30477;48.224;11.470;2022-11-15T14:29:28;95358.19;;;11.16;64.35
44751;BME280;30477;48.224;11.470;2022-11-15T14:34:44;95360.47;;;11.11;64.27
44751;BME280;30477;48.224;11.470;2022-11-15T14:37:20;95360.78;;;11.08;64.60
44751;BME280;30477;48.224;11.470;2022-11-15T14:39:46;95362.06;;;11.04;64.48
44751;BME280;30477;48.224;11.470;2022-11-15T14:42:11;95364.66;;;11.04;65.08
44751;BME280;30477;48.224;11.470;2022-11-15T14:44:40;95360.59;;;11.01;64.99
44751;BME280;30477;48.224;11.470;2022-11-15T14:47:05;95368.53;;;11.00;65.04
44751;BME280;30477;48.224;11.470;2022-11-15T14:49:31;95362.03;;;10.95;64.85
44751;BME280;30477;48.224;11.470;2022-11-15T14:51:56;95356.22;;;10.93;65.11
44751;BME280;30477;48.224;11.470;2022-11-15T14:54:21;95358.63;;;10.87;65.27
44751;BME280;30477;48.224;11.470;2022-11-15T14:56:47;95352.97;;;10.83;65.28
44751;BME280;30477;48.224;11.470;2022-11-15T14:59:12;95351.66;;;10.79;65.30